Terminal Aerodrome Forecast
Issued by NWS Cleveland, OH

Home | Current Version | Previous Version | Graphics & Text | Print | Product List | Glossary On
Versions: 1 2 3 4 5 6 7 8 9 10 11 12 13 14 15 16 17 18 19 20 21 22 23 24 25 26 27 28 29
000
FTUS41 KCLE 221720 AAC
TAFCLE
TAF AMD
KCLE 221720Z 2217/2318 21010G18KT P6SM SCT040 BKN150
     FM221725 29015G25KT 1SM -TSRA BR BKN035CB OVC060
     FM221800 23013G23KT P6SM -SHRA SCT040 BKN050
     FM222200 26013G23KT P6SM -SHRA SCT040 BKN060
     FM230000 29014KT P6SM BKN045
     FM231200 31006KT P6SM SKC=

USA.gov is the U.S. government's official web portal to all federal, state and local government web resources and services.